Time;durP1;ratioP1;P1;durP2;ratioP2;P2;SDS_P1;SDS_P2;PMS_P1;PMS_P2;Temp;Humidity;BMP_temperature;BMP_pressure;BME280_temperature;BME280_humidity;BME280_pressure;Samples;Min_cycle;Max_cycle;Signal;HPM_P1;HPM_P2
2024/02/01 00:01:57;;;;;;;76.88;69.45;;;;;;;;;;4216173;28;20047;-64
2024/02/01 00:03:59;;;;;;;72.68;65.60;;;;;;;;;;4216030;28;20036;-63
2024/02/01 00:06:03;;;;;;;73.78;65.85;;;;;;;;;;4216254;28;20036;-59
2024/02/01 00:08:05;;;;;;;71.93;65.43;;;;;;;;;;4216255;28;20432;-59
2024/02/01 00:10:07;;;;;;;67.93;62.15;;;;;;;;;;4215778;28;20052;-59
2024/02/01 00:12:09;;;;;;;66.18;60.70;;;;;;;;;;4204792;28;20037;-59
2024/02/01 00:14:10;;;;;;;67.82;61.97;;;;;;;;;;4199156;28;20124;-59
2024/02/01 00:16:19;;;;;;;62.42;57.53;;;;;;;;;;4201772;28;20040;-59
2024/02/01 00:18:20;;;;;;;66.03;60.75;;;;;;;;;;4216120;28;20115;-60
2024/02/01 00:20:22;;;;;;;69.70;63.65;;;;;;;;;;4216042;28;20066;-59
2024/02/01 00:22:24;;;;;;;68.22;62.38;;;;;;;;;;4214902;28;20403;-59
2024/02/01 00:24:34;;;;;;;70.78;64.22;;;;;;;;;;4215870;28;20503;-59
2024/02/01 00:26:36;;;;;;;65.95;60.38;;;;;;;;;;4215671;28;20470;-59
2024/02/01 00:28:37;;;;;;;64.00;57.73;;;;;;;;;;4215830;28;20062;-59
2024/02/01 00:30:41;;;;;;;68.35;62.22;;;;;;;;;;4215935;28;20292;-59
2024/02/01 00:32:42;;;;;;;64.95;59.25;;;;;;;;;;4199089;28;20099;-59
2024/02/01 00:34:44;;;;;;;64.30;58.77;;;;;;;;;;4198388;28;20041;-59
2024/02/01 00:36:46;;;;;;;64.85;59.30;;;;;;;;;;4197875;28;20733;-59
2024/02/01 00:38:48;;;;;;;68.50;63.00;;;;;;;;;;4203948;28;20048;-59
2024/02/01 00:40:49;;;;;;;66.40;61.20;;;;;;;;;;4214732;28;20052;-59
2024/02/01 00:42:51;;;;;;;63.00;57.92;;;;;;;;;;4215084;28;20278;-59
2024/02/01 00:44:53;;;;;;;66.93;61.30;;;;;;;;;;4215390;28;20464;-59
2024/02/01 00:46:54;;;;;;;63.47;58.23;;;;;;;;;;4215285;28;20427;-59
2024/02/01 00:48:56;;;;;;;66.18;60.67;;;;;;;;;;4215219;28;20293;-59
2024/02/01 00:50:58;;;;;;;63.63;58.37;;;;;;;;;;4215025;28;20047;-59
2024/02/01 00:52:59;;;;;;;62.45;57.67;;;;;;;;;;4214220;28;20278;-60
2024/02/01 00:55:01;;;;;;;64.63;59.58;;;;;;;;;;4215215;28;20089;-60
2024/02/01 00:57:03;;;;;;;65.47;60.37;;;;;;;;;;4215120;28;20044;-59
2024/02/01 00:59:05;;;;;;;65.68;60.35;;;;;;;;;;4215384;28;20348;-60
2024/02/01 01:01:07;;;;;;;73.65;66.90;;;;;;;;;;4213884;28;20048;-59
2024/02/01 01:03:09;;;;;;;68.15;61.92;;;;;;;;;;4214789;28;20040;-60
2024/02/01 01:05:11;;;;;;;70.07;63.47;;;;;;;;;;4215002;28;20032;-59
2024/02/01 01:07:13;;;;;;;69.37;63.30;;;;;;;;;;4213865;28;20044;-59
2024/02/01 01:09:14;;;;;;;68.30;62.53;;;;;;;;;;4197161;28;20040;-59
2024/02/01 01:11:16;;;;;;;69.95;63.97;;;;;;;;;;4198328;28;20093;-59
2024/02/01 01:13:18;;;;;;;67.93;61.97;;;;;;;;;;4198178;28;20041;-59
2024/02/01 01:15:21;;;;;;;64.47;58.70;;;;;;;;;;4198340;28;20286;-63
2024/02/01 01:17:22;;;;;;;66.03;60.88;;;;;;;;;;4210455;28;20500;-59
2024/02/01 01:19:24;;;;;;;64.20;59.17;;;;;;;;;;4214722;28;20093;-58
2024/02/01 01:21:27;;;;;;;63.42;58.33;;;;;;;;;;4215145;28;20066;-58
2024/02/01 01:23:29;;;;;;;63.15;58.28;;;;;;;;;;4214947;28;20036;-59
2024/02/01 01:25:30;;;;;;;63.17;58.33;;;;;;;;;;4215058;28;20119;-59
2024/02/01 01:27:32;;;;;;;62.97;58.03;;;;;;;;;;4209505;28;20033;-63
2024/02/01 01:29:34;;;;;;;63.45;58.45;;;;;;;;;;4198101;28;20036;-63
2024/02/01 01:31:35;;;;;;;59.10;54.33;;;;;;;;;;4196649;28;20535;-63
2024/02/01 01:33:37;;;;;;;62.30;57.55;;;;;;;;;;4197899;28;20037;-63
2024/02/01 01:35:39;;;;;;;60.80;56.33;;;;;;;;;;4198136;28;20496;-64
2024/02/01 01:37:44;;;;;;;61.13;56.65;;;;;;;;;;4197809;28;20045;-63
2024/02/01 01:39:45;;;;;;;;;;;;;;;;;;4197874;28;20512;-63
2024/02/01 01:41:47;;;;;;;58.35;53.95;;;;;;;;;;4197660;28;19920;-63
2024/02/01 01:43:49;;;;;;;62.20;57.75;;;;;;;;;;4196619;28;20131;-63
2024/02/01 01:46:01;;;;;;;60.00;55.43;;;;;;;;;;4197721;28;20032;-63
2024/02/01 01:48:03;;;;;;;60.58;56.13;;;;;;;;;;4197868;28;20071;-64
2024/02/01 01:50:05;;;;;;;61.10;56.17;;;;;;;;;;4197263;28;20386;-63
2024/02/01 01:52:08;;;;;;;62.47;57.70;;;;;;;;;;4201235;28;20219;-64
2024/02/01 01:54:11;;;;;;;66.85;61.53;;;;;;;;;;4214550;28;20074;-63
2024/02/01 01:56:13;;;;;;;60.15;55.67;;;;;;;;;;4214090;28;20079;-64
2024/02/01 01:58:16;;;;;;;61.72;56.88;;;;;;;;;;4214083;28;20105;-64
2024/02/01 02:00:18;;;;;;;62.17;57.22;;;;;;;;;;4214182;28;20189;-63
2024/02/01 02:02:20;;;;;;;67.43;61.95;;;;;;;;;;4200825;28;20127;-64
2024/02/01 02:04:22;;;;;;;60.47;56.22;;;;;;;;;;4197062;28;20528;-63
2024/02/01 02:06:24;;;;;;;71.80;64.95;;;;;;;;;;4197482;28;20041;-64
2024/02/01 02:08:26;;;;;;;68.03;62.03;;;;;;;;;;4197531;28;20044;-64
2024/02/01 02:10:27;;;;;;;65.93;60.80;;;;;;;;;;4197430;28;20058;-64
2024/02/01 02:12:29;;;;;;;62.78;57.95;;;;;;;;;;4197292;28;20407;-63
2024/02/01 02:14:31;;;;;;;57.72;53.03;;;;;;;;;;4197707;28;20373;-64
2024/02/01 02:16:37;;;;;;;65.10;59.75;;;;;;;;;;4202667;28;20066;-64
2024/02/01 02:18:41;;;;;;;60.33;55.58;;;;;;;;;;4214250;28;20119;-63
2024/02/01 02:20:44;;;;;;;64.22;59.45;;;;;;;;;;4214234;28;20074;-64
2024/02/01 02:22:46;;;;;;;63.80;58.00;;;;;;;;;;4214001;28;20381;-64
2024/02/01 02:24:48;;;;;;;59.40;55.10;;;;;;;;;;4200436;28;20040;-64
2024/02/01 02:26:50;;;;;;;58.97;54.40;;;;;;;;;;4197678;28;20048;-63
2024/02/01 02:28:51;;;;;;;60.60;56.20;;;;;;;;;;4195883;28;20565;-64
2024/02/01 02:30:55;;;;;;;62.60;58.00;;;;;;;;;;4196240;28;20040;-63
2024/02/01 02:32:57;;;;;;;59.83;55.40;;;;;;;;;;4197468;28;20392;-63
2024/02/01 02:34:59;;;;;;;60.35;55.72;;;;;;;;;;4196054;28;20102;-64
2024/02/01 02:37:01;;;;;;;58.65;54.42;;;;;;;;;;4197279;28;20511;-64
2024/02/01 02:39:04;;;;;;;64.05;59.53;;;;;;;;;;4197240;28;20569;-64
2024/02/01 02:41:05;;;;;;;68.97;63.22;;;;;;;;;;4197237;28;20040;-64
2024/02/01 02:43:07;;;;;;;68.22;62.63;;;;;;;;;;4197160;28;20040;-64
2024/02/01 02:45:09;;;;;;;63.00;57.67;;;;;;;;;;4197578;28;20048;-64
2024/02/01 02:47:11;;;;;;;;;;;;;;;;;;4197554;28;20033;-63
2024/02/01 02:49:13;;;;;;;62.28;57.58;;;;;;;;;;4196997;28;20011;-63
2024/02/01 02:51:15;;;;;;;61.15;56.95;;;;;;;;;;4197020;28;20074;-63
2024/02/01 02:53:17;;;;;;;58.65;54.38;;;;;;;;;;4210699;28;20415;-63
2024/02/01 02:55:19;;;;;;;60.58;56.10;;;;;;;;;;4213658;28;20408;-63
2024/02/01 02:57:20;;;;;;;57.55;53.80;;;;;;;;;;4210292;28;20526;-63
2024/02/01 02:59:22;;;;;;;57.22;53.83;;;;;;;;;;4195641;28;20059;-63
2024/02/01 03:01:24;;;;;;;54.30;50.87;;;;;;;;;;4197144;28;20072;-63
2024/02/01 03:03:25;;;;;;;56.92;53.38;;;;;;;;;;4197328;28;20115;-63
2024/02/01 03:05:27;;;;;;;59.93;56.50;;;;;;;;;;4197195;28;20091;-63
2024/02/01 03:07:29;;;;;;;56.85;53.53;;;;;;;;;;4196830;28;20048;-63
2024/02/01 03:09:30;;;;;;;61.17;57.43;;;;;;;;;;4196938;28;20493;-63
2024/02/01 03:11:35;;;;;;;56.55;53.08;;;;;;;;;;4196808;28;20087;-63
2024/02/01 03:13:39;;;;;;;59.43;55.70;;;;;;;;;;4196864;28;20048;-63
2024/02/01 03:15:41;;;;;;;63.83;59.10;;;;;;;;;;4203170;28;20442;-63
2024/02/01 03:17:44;;;;;;;62.87;58.50;;;;;;;;;;4215433;28;20036;-64
2024/02/01 03:19:53;;;;;;;61.38;56.92;;;;;;;;;;4216838;28;20090;-63
2024/02/01 03:21:58;;;;;;;61.70;57.38;;;;;;;;;;4216941;28;20064;-64
2024/02/01 03:24:01;;;;;;;63.17;58.58;;;;;;;;;;4216742;28;20036;-64
2024/02/01 03:26:04;;;;;;;58.03;54.13;;;;;;;;;;4216720;28;20040;-63
2024/02/01 03:28:06;;;;;;;61.55;57.17;;;;;;;;;;4216700;28;20419;-64
2024/02/01 03:30:11;;;;;;;63.72;59.50;;;;;;;;;;4216873;28;20450;-63
2024/02/01 03:32:13;;;;;;;63.13;58.85;;;;;;;;;;4216753;28;20051;-64
2024/02/01 03:34:20;;;;;;;58.40;54.13;;;;;;;;;;4217142;28;20089;-63
2024/02/01 03:36:24;;;;;;;59.90;55.92;;;;;;;;;;4216613;28;20047;-64
2024/02/01 03:38:26;;;;;;;58.25;54.45;;;;;;;;;;4216676;28;20036;-59
2024/02/01 03:40:28;;;;;;;53.30;50.13;;;;;;;;;;4216198;28;20040;-60
2024/02/01 03:42:29;;;;;;;54.58;51.10;;;;;;;;;;4216373;28;20290;-59
2024/02/01 03:44:37;;;;;;;55.83;52.15;;;;;;;;;;4216431;28;20064;-59
2024/02/01 03:46:40;;;;;;;54.75;51.63;;;;;;;;;;4216424;28;20495;-59
2024/02/01 03:48:43;;;;;;;53.15;49.95;;;;;;;;;;4214992;28;20114;-63
2024/02/01 03:50:45;;;;;;;56.30;52.47;;;;;;;;;;4216139;28;20124;-63
2024/02/01 03:52:47;;;;;;;63.63;59.53;;;;;;;;;;4206987;28;20117;-63
2024/02/01 03:54:48;;;;;;;61.47;57.53;;;;;;;;;;4199606;28;20063;-63
2024/02/01 03:56:54;;;;;;;62.97;58.50;;;;;;;;;;4199662;28;20072;-63
2024/02/01 03:58:56;;;;;;;61.65;57.38;;;;;;;;;;4199451;28;20516;-63
2024/02/01 04:01:00;;;;;;;62.05;58.10;;;;;;;;;;4199530;28;20119;-63
2024/02/01 04:03:13;;;;;;;60.40;56.35;;;;;;;;;;4199608;28;20033;-63
2024/02/01 04:05:18;;;;;;;59.13;55.40;;;;;;;;;;4199337;28;20492;-63
2024/02/01 04:07:20;;;;;;;57.92;54.05;;;;;;;;;;4199408;28;20372;-63
2024/02/01 04:09:24;;;;;;;57.97;53.87;;;;;;;;;;4199317;28;20040;-64
2024/02/01 04:11:29;;;;;;;55.88;52.03;;;;;;;;;;4199436;28;20484;-63
2024/02/01 04:13:31;;;;;;;56.58;52.83;;;;;;;;;;4197922;28;20045;-63
2024/02/01 04:15:34;;;;;;;60.40;56.17;;;;;;;;;;4199514;28;20523;-63
2024/02/01 04:17:35;;;;;;;58.53;54.50;;;;;;;;;;4211898;28;20047;-64
2024/02/01 04:19:37;;;;;;;57.97;54.17;;;;;;;;;;4215788;28;20078;-63
2024/02/01 04:21:39;;;;;;;57.65;53.33;;;;;;;;;;4215819;28;20126;-63
2024/02/01 04:23:40;;;;;;;60.20;56.47;;;;;;;;;;4216094;28;20032;-63
2024/02/01 04:25:43;;;;;;;61.05;57.10;;;;;;;;;;4216063;28;20123;-63
2024/02/01 04:27:49;;;;;;;60.05;55.88;;;;;;;;;;4215602;28;20075;-63
2024/02/01 04:29:51;;;;;;;63.08;58.95;;;;;;;;;;4199440;28;20503;-63
2024/02/01 04:31:53;;;;;;;56.97;53.22;;;;;;;;;;4198759;28;20040;-63
2024/02/01 04:33:57;;;;;;;55.33;51.63;;;;;;;;;;4199103;28;20029;-63
2024/02/01 04:36:00;;;;;;;59.90;56.00;;;;;;;;;;4198857;28;20052;-63
2024/02/01 04:38:04;;;;;;;60.05;56.25;;;;;;;;;;4198922;28;20048;-63
2024/02/01 04:40:09;;;;;;;61.30;57.38;;;;;;;;;;4197381;28;20361;-63
2024/02/01 04:42:17;;;;;;;58.80;55.15;;;;;;;;;;4198891;28;20115;-63
2024/02/01 04:44:22;;;;;;;61.25;57.15;;;;;;;;;;4198896;28;20123;-63
2024/02/01 04:46:24;;;;;;;63.67;59.50;;;;;;;;;;4199094;28;20112;-63
2024/02/01 04:48:26;;;;;;;61.65;57.90;;;;;;;;;;4199077;28;20029;-61
2024/02/01 04:50:28;;;;;;;62.80;58.40;;;;;;;;;;4206694;28;20126;-59
2024/02/01 04:52:30;;;;;;;54.33;50.87;;;;;;;;;;4211541;28;20041;-59
2024/02/01 04:54:34;;;;;;;62.10;58.40;;;;;;;;;;4198640;28;20072;-58
2024/02/01 04:56:38;;;;;;;55.63;52.22;;;;;;;;;;4197586;28;20048;-59
2024/02/01 04:58:41;;;;;;;60.03;56.30;;;;;;;;;;4213294;28;20400;-64
2024/02/01 05:00:43;;;;;;;55.35;52.17;;;;;;;;;;4215107;28;20388;-63
2024/02/01 05:02:48;;;;;;;60.80;56.80;;;;;;;;;;4215103;28;20511;-63
2024/02/01 05:04:50;;;;;;;70.50;64.95;;;;;;;;;;4215128;28;20527;-63
2024/02/01 05:06:52;;;;;;;66.53;61.83;;;;;;;;;;4215047;28;20113;-63
2024/02/01 05:08:56;;;;;;;62.80;58.35;;;;;;;;;;4215226;28;20064;-63
2024/02/01 05:10:58;;;;;;;63.03;58.90;;;;;;;;;;4211052;28;20415;-64
2024/02/01 05:13:02;;;;;;;64.25;59.85;;;;;;;;;;4205820;28;20056;-63
2024/02/01 05:15:07;;;;;;;62.22;57.88;;;;;;;;;;4203921;28;20032;-63
2024/02/01 05:17:09;;;;;;;57.20;53.28;;;;;;;;;;4213710;28;20044;-63
2024/02/01 05:19:10;;;;;;;62.13;58.00;;;;;;;;;;4214944;28;20575;-63
2024/02/01 05:21:12;;;;;;;66.38;61.92;;;;;;;;;;4214819;28;20127;-63
2024/02/01 05:23:14;;;;;;;60.33;56.38;;;;;;;;;;4199636;28;20489;-63
2024/02/01 05:25:17;;;;;;;62.40;58.30;;;;;;;;;;4197992;28;20385;-63
2024/02/01 05:27:20;;;;;;;63.63;58.33;;;;;;;;;;4196801;28;20037;-64
2024/02/01 05:29:23;;;;;;;61.65;56.95;;;;;;;;;;4197931;28;20033;-63
2024/02/01 05:31:27;;;;;;;57.40;52.95;;;;;;;;;;4197981;28;20040;-63
2024/02/01 05:33:29;;;;;;;61.30;56.67;;;;;;;;;;4198068;28;20474;-63
2024/02/01 05:35:33;;;;;;;60.33;56.22;;;;;;;;;;4197911;28;20048;-63
2024/02/01 05:37:36;;;;;;;59.20;55.13;;;;;;;;;;4198045;28;20063;-63
2024/02/01 05:39:44;;;;;;;61.10;56.90;;;;;;;;;;4197189;28;20059;-63
2024/02/01 05:41:46;;;;;;;55.90;52.35;;;;;;;;;;4196374;28;20055;-63
2024/02/01 05:43:48;;;;;;;59.20;54.72;;;;;;;;;;4198130;28;20086;-64
2024/02/01 05:45:50;;;;;;;59.95;55.63;;;;;;;;;;4197578;28;20051;-63
2024/02/01 05:47:51;;;;;;;61.25;56.33;;;;;;;;;;4197790;28;20037;-63
2024/02/01 05:49:54;;;;;;;58.15;54.05;;;;;;;;;;4192560;28;20046;-63
2024/02/01 05:52:00;;;;;;;60.08;55.95;;;;;;;;;;4214520;28;20496;-63
2024/02/01 05:54:03;;;;;;;61.55;57.58;;;;;;;;;;4214484;28;20119;-63
2024/02/01 05:56:04;;;;;;;;;;;;;;;;;;4215358;28;20484;-64
2024/02/01 05:58:06;;;;;;;63.17;58.42;;;;;;;;;;4214209;28;19924;-63
2024/02/01 06:00:12;;;;;;;59.97;56.05;;;;;;;;;;4214543;28;20093;-64
2024/02/01 06:02:14;;;;;;;62.10;58.10;;;;;;;;;;4211126;28;20094;-63
2024/02/01 06:04:16;;;;;;;59.45;55.05;;;;;;;;;;4200834;28;20040;-63
2024/02/01 06:06:17;;;;;;;60.50;55.92;;;;;;;;;;4197050;28;20041;-63
2024/02/01 06:08:19;;;;;;;62.22;58.25;;;;;;;;;;4198562;28;20428;-63
2024/02/01 06:10:21;;;;;;;59.95;55.83;;;;;;;;;;4214353;28;20505;-63
2024/02/01 06:12:23;;;;;;;56.85;52.92;;;;;;;;;;4214086;28;20040;-63
2024/02/01 06:14:24;;;;;;;58.03;54.20;;;;;;;;;;4213100;28;20035;-63
2024/02/01 06:16:27;;;;;;;58.90;55.00;;;;;;;;;;4212910;28;20036;-63
2024/02/01 06:18:29;;;;;;;56.33;52.15;;;;;;;;;;4198600;28;20557;-63
2024/02/01 06:20:31;;;;;;;61.50;57.33;;;;;;;;;;4202904;28;20046;-63
2024/02/01 06:22:33;;;;;;;66.30;60.83;;;;;;;;;;4213993;28;20112;-63
2024/02/01 06:24:36;;;;;;;83.47;74.78;;;;;;;;;;4212903;28;20040;-63
2024/02/01 06:26:38;;;;;;;87.05;78.10;;;;;;;;;;4196035;28;20156;-64
2024/02/01 06:28:40;;;;;;;73.05;65.97;;;;;;;;;;4212797;28;20119;-63
2024/02/01 06:30:42;;;;;;;82.90;74.75;;;;;;;;;;4214152;28;20036;-63
2024/02/01 06:32:44;;;;;;;67.97;62.70;;;;;;;;;;4212566;28;20075;-63
2024/02/01 06:34:58;;;;;;;63.70;58.75;;;;;;;;;;4213757;28;20111;-64
2024/02/01 06:37:01;;;;;;;56.53;53.05;;;;;;;;;;4211508;28;20105;-63
2024/02/01 06:41:17;;;;;;;56.47;52.65;;;;;;;;;;4213833;28;20044;-64
2024/02/01 06:43:31;;;;;;;70.65;64.80;;;;;;;;;;4211175;28;20452;-63
2024/02/01 06:45:42;;;;;;;72.38;66.32;;;;;;;;;;4207509;28;20059;-64
2024/02/01 06:47:49;;;;;;;69.80;64.53;;;;;;;;;;4207887;28;20037;-64
2024/02/01 06:52:34;;;;;;;67.95;62.47;;;;;;;;;;4215849;28;20393;-63
2024/02/01 06:54:39;;;;;;;63.35;58.70;;;;;;;;;;4217300;28;20150;-64
2024/02/01 06:56:52;;;;;;;66.78;62.03;;;;;;;;;;4215862;28;20063;-63
2024/02/01 06:59:21;;;;;;;65.20;60.60;;;;;;;;;;4217023;28;20046;-63
2024/02/01 07:01:33;;;;;;;61.10;57.15;;;;;;;;;;4216982;28;20508;-63
2024/02/01 07:03:50;;;;;;;66.47;61.70;;;;;;;;;;4216011;28;20051;-63
2024/02/01 07:08:02;;;;;;;63.60;59.05;;;;;;;;;;4217107;28;20075;-63
2024/02/01 07:10:14;;;;;;;62.30;58.08;;;;;;;;;;4216983;28;20074;-63
2024/02/01 07:12:29;;;;;;;76.57;69.43;;;;;;;;;;4216963;28;20052;-63
2024/02/01 07:14:36;;;;;;;79.97;72.90;;;;;;;;;;4216865;28;20044;-63
2024/02/01 07:16:54;;;;;;;91.93;83.32;;;;;;;;;;4210872;28;20455;-63
2024/02/01 07:21:31;;;;;;;85.40;77.75;;;;;;;;;;4199950;28;20124;-60
2024/02/01 07:23:48;;;;;;;74.85;68.07;;;;;;;;;;4200021;28;20040;-60
2024/02/01 07:26:06;;;;;;;71.07;65.97;;;;;;;;;;4198561;28;20139;-60
2024/02/01 07:58:32;;;;;;;73.70;67.20;;;;;;;;;;4212911;28;20503;-60
2024/02/01 08:00:44;;;;;;;159.23;109.18;;;;;;;;;;4216118;28;20047;-60
2024/02/01 08:02:49;;;;;;;138.38;100.75;;;;;;;;;;4198716;28;20090;-60
2024/02/01 08:09:32;;;;;;;89.82;80.22;;;;;;;;;;4199193;28;20074;-60
2024/02/01 08:11:33;;;;;;;94.75;81.40;;;;;;;;;;4199134;28;20048;-60
2024/02/01 08:13:35;;;;;;;85.72;77.15;;;;;;;;;;4198045;28;20045;-60
2024/02/01 08:15:44;;;;;;;79.20;71.70;;;;;;;;;;4199205;28;20427;-60
2024/02/01 08:17:53;;;;;;;68.47;62.40;;;;;;;;;;4214864;28;20044;-60
2024/02/01 08:19:55;;;;;;;60.90;56.97;;;;;;;;;;4215990;28;20039;-64
2024/02/01 08:22:00;;;;;;;59.55;55.80;;;;;;;;;;4215640;28;20514;-64
2024/02/01 08:24:05;;;;;;;61.30;57.28;;;;;;;;;;4215770;28;20040;-64
2024/02/01 08:26:06;;;;;;;59.92;56.10;;;;;;;;;;4215660;28;20503;-64
2024/02/01 08:28:09;;;;;;;63.83;59.22;;;;;;;;;;4215712;28;20040;-64
2024/02/01 08:30:14;;;;;;;62.05;57.67;;;;;;;;;;4215716;28;20044;-60
2024/02/01 08:32:19;;;;;;;57.22;53.38;;;;;;;;;;4215887;28;20123;-61
2024/02/01 08:34:22;;;;;;;60.97;56.78;;;;;;;;;;4197733;28;20088;-60
2024/02/01 08:36:23;;;;;;;69.90;64.28;;;;;;;;;;4215653;28;20102;-61
2024/02/01 08:38:25;;;;;;;84.32;76.32;;;;;;;;;;4204460;28;20076;-61
2024/02/01 08:40:27;;;;;;;70.83;64.53;;;;;;;;;;4198516;28;20055;-62
2024/02/01 08:42:29;;;;;;;80.10;72.30;;;;;;;;;;4197376;28;20036;-61
2024/02/01 08:44:35;;;;;;;119.97;103.70;;;;;;;;;;4198691;28;20332;-60
2024/02/01 08:46:36;;;;;;;92.15;82.93;;;;;;;;;;4197462;28;20075;-61
2024/02/01 08:48:39;;;;;;;78.55;71.07;;;;;;;;;;4198775;28;20090;-61
2024/02/01 08:50:42;;;;;;;76.70;69.80;;;;;;;;;;4198408;28;20545;-60
2024/02/01 08:52:48;;;;;;;79.72;71.63;;;;;;;;;;4206339;28;20068;-61
2024/02/01 08:54:49;;;;;;;80.47;73.00;;;;;;;;;;4215263;28;20040;-60
2024/02/01 08:56:51;;;;;;;77.10;69.10;;;;;;;;;;4215440;28;20268;-61
2024/02/01 08:58:53;;;;;;;72.50;65.53;;;;;;;;;;4198319;28;20045;-60
2024/02/01 09:00:55;;;;;;;71.70;65.43;;;;;;;;;;4198344;28;20286;-60
2024/02/01 09:03:03;;;;;;;71.77;65.00;;;;;;;;;;4198329;28;20032;-61
2024/02/01 09:05:19;;;;;;;67.30;61.70;;;;;;;;;;4198613;28;20735;-61
2024/02/01 09:07:21;;;;;;;67.10;61.13;;;;;;;;;;4198659;28;20098;-60
2024/02/01 09:09:29;;;;;;;66.30;60.63;;;;;;;;;;4198334;28;20078;-60
2024/02/01 09:11:31;;;;;;;65.40;59.67;;;;;;;;;;4198160;28;20290;-61
2024/02/01 09:13:33;;;;;;;66.78;60.65;;;;;;;;;;4197364;28;20075;-61
2024/02/01 09:15:35;;;;;;;69.93;62.83;;;;;;;;;;4198449;28;20037;-61
2024/02/01 09:17:36;;;;;;;113.60;71.07;;;;;;;;;;4212447;28;20043;-61
2024/02/01 09:19:38;;;;;;;72.30;63.53;;;;;;;;;;4215144;28;20438;-61
2024/02/01 09:21:40;;;;;;;74.50;66.47;;;;;;;;;;4214868;28;20036;-61
2024/02/01 09:23:43;;;;;;;66.95;60.30;;;;;;;;;;4214900;28;20036;-61
2024/02/01 09:25:45;;;;;;;59.25;54.88;;;;;;;;;;4214682;28;20040;-61
2024/02/01 09:27:48;;;;;;;57.03;53.13;;;;;;;;;;4213480;28;20077;-61
2024/02/01 09:29:50;;;;;;;58.97;54.58;;;;;;;;;;4214455;28;20589;-61
2024/02/01 09:31:56;;;;;;;56.42;52.20;;;;;;;;;;4214561;28;20036;-61
2024/02/01 09:33:57;;;;;;;61.47;56.22;;;;;;;;;;4213737;28;20455;-61
2024/02/01 09:35:59;;;;;;;61.70;56.67;;;;;;;;;;4213508;28;20126;-62
2024/02/01 09:38:01;;;;;;;58.25;54.22;;;;;;;;;;4214544;28;20040;-62
2024/02/01 09:40:03;;;;;;;59.20;54.47;;;;;;;;;;4214519;28;20393;-65
2024/02/01 09:42:11;;;;;;;59.45;53.53;;;;;;;;;;4214391;28;20039;-65
2024/02/01 09:44:13;;;;;;;53.30;49.58;;;;;;;;;;4214622;28;20085;-66
2024/02/01 09:46:17;;;;;;;60.03;55.05;;;;;;;;;;4214750;28;20039;-66
2024/02/01 09:48:19;;;;;;;61.53;56.75;;;;;;;;;;4214472;28;20067;-67
2024/02/01 09:50:23;;;;;;;60.30;54.78;;;;;;;;;;4214434;28;20063;-66
2024/02/01 09:52:25;;;;;;;60.53;55.50;;;;;;;;;;4214606;28;20027;-67
2024/02/01 09:54:27;;;;;;;58.67;54.13;;;;;;;;;;4214582;28;20036;-67
2024/02/01 09:56:29;;;;;;;57.80;53.30;;;;;;;;;;4214412;28;20074;-66
2024/02/01 09:58:32;;;;;;;55.88;51.63;;;;;;;;;;4212921;28;20040;-67
2024/02/01 10:00:34;;;;;;;51.65;48.08;;;;;;;;;;4214575;28;20118;-66
2024/02/01 10:02:36;;;;;;;55.13;51.03;;;;;;;;;;4214186;28;20066;-66
2024/02/01 10:04:37;;;;;;;52.15;48.58;;;;;;;;;;4214425;28;20036;-66
2024/02/01 10:06:39;;;;;;;53.03;49.13;;;;;;;;;;4214201;28;20044;-66
2024/02/01 10:08:42;;;;;;;51.17;47.67;;;;;;;;;;4214205;28;20044;-66
2024/02/01 10:10:45;;;;;;;51.50;47.85;;;;;;;;;;4214438;28;20127;-66
2024/02/01 10:12:47;;;;;;;49.55;46.03;;;;;;;;;;4214161;28;20097;-65
2024/02/01 10:14:50;;;;;;;50.97;47.57;;;;;;;;;;4214130;28;20068;-65
2024/02/01 10:16:51;;;;;;;48.45;44.60;;;;;;;;;;4206250;28;20040;-65
2024/02/01 10:19:08;;;;;;;47.63;44.33;;;;;;;;;;4197346;28;20079;-65
2024/02/01 10:21:22;;;;;;;53.33;49.53;;;;;;;;;;4197615;28;20291;-65
2024/02/01 10:23:43;;;;;;;49.97;46.50;;;;;;;;;;4196053;28;20091;-65
2024/02/01 10:25:46;;;;;;;47.17;43.78;;;;;;;;;;4197325;28;20392;-65
2024/02/01 10:27:47;;;;;;;;;;;;;;;;;;4204318;28;20036;-65
2024/02/01 10:29:49;;;;;;;45.22;42.28;;;;;;;;;;4213932;28;19920;-65
2024/02/01 10:31:54;;;;;;;47.28;44.08;;;;;;;;;;4214078;28;20373;-65
2024/02/01 10:33:56;;;;;;;42.47;39.78;;;;;;;;;;4209455;28;20090;-64
2024/02/01 10:35:58;;;;;;;44.55;41.85;;;;;;;;;;4197246;28;20037;-64
2024/02/01 10:38:01;;;;;;;42.95;40.50;;;;;;;;;;4197599;28;20040;-65
2024/02/01 10:40:07;;;;;;;41.05;38.33;;;;;;;;;;4197129;28;20226;-64
2024/02/01 10:42:11;;;;;;;41.60;39.20;;;;;;;;;;4197155;28;20071;-65
2024/02/01 10:44:15;;;;;;;41.40;39.10;;;;;;;;;;4197282;28;20044;-64
2024/02/01 10:46:18;;;;;;;43.13;40.50;;;;;;;;;;4196603;28;20531;-64
2024/02/01 10:48:23;;;;;;;40.55;38.05;;;;;;;;;;4213032;28;20526;-64
2024/02/01 10:50:32;;;;;;;43.30;40.72;;;;;;;;;;4211113;28;20111;-61
2024/02/01 10:52:34;;;;;;;43.25;40.88;;;;;;;;;;4212653;28;20503;-62
2024/02/01 10:54:37;;;;;;;44.38;41.70;;;;;;;;;;4212764;28;20515;-61
2024/02/01 10:56:39;;;;;;;41.03;38.72;;;;;;;;;;4212675;28;20044;-61
2024/02/01 10:58:53;;;;;;;42.42;40.13;;;;;;;;;;4211969;28;20036;-61
2024/02/01 11:00:55;;;;;;;42.83;40.03;;;;;;;;;;4212697;28;20048;-61
2024/02/01 11:03:00;;;;;;;39.53;36.88;;;;;;;;;;4213157;28;20036;-61
2024/02/01 11:05:01;;;;;;;43.60;41.15;;;;;;;;;;4210648;28;20070;-62
2024/02/01 11:07:03;;;;;;;44.67;41.97;;;;;;;;;;4212945;28;20423;-62
2024/02/01 11:09:18;;;;;;;41.75;39.25;;;;;;;;;;4213229;28;20036;-61
2024/02/01 11:11:31;;;;;;;45.78;43.17;;;;;;;;;;4213133;28;20059;-61
2024/02/01 11:13:33;;;;;;;45.13;42.10;;;;;;;;;;4212582;28;20044;-60
2024/02/01 11:15:35;;;;;;;44.37;41.90;;;;;;;;;;4212327;28;20048;-61
2024/02/01 11:17:37;;;;;;;43.85;41.17;;;;;;;;;;4212942;28;20292;-61
2024/02/01 11:19:39;;;;;;;45.45;42.45;;;;;;;;;;4212737;28;20028;-60
2024/02/01 11:21:49;;;;;;;43.45;41.03;;;;;;;;;;4212551;28;20043;-61
2024/02/01 11:23:51;;;;;;;45.67;42.47;;;;;;;;;;4213008;28;20040;-60
2024/02/01 11:25:55;;;;;;;46.43;43.47;;;;;;;;;;4211902;28;20071;-61
2024/02/01 11:27:57;;;;;;;45.33;42.60;;;;;;;;;;4211251;28;20036;-61
2024/02/01 11:30:19;;;;;;;44.58;41.78;;;;;;;;;;4212738;28;20036;-61
2024/02/01 11:32:21;;;;;;;41.58;38.90;;;;;;;;;;4212242;28;20044;-61
2024/02/01 11:34:24;;;;;;;41.55;39.00;;;;;;;;;;4211883;28;20430;-61
2024/02/01 11:36:26;;;;;;;44.58;41.97;;;;;;;;;;4207284;28;20074;-61
2024/02/01 11:38:27;;;;;;;44.33;41.53;;;;;;;;;;4211934;28;20422;-61
2024/02/01 11:40:29;;;;;;;41.07;38.73;;;;;;;;;;4215094;28;20050;-61
2024/02/01 11:42:31;;;;;;;44.67;42.03;;;;;;;;;;4215970;28;20035;-62
2024/02/01 11:44:34;;;;;;;45.33;42.40;;;;;;;;;;4215345;28;20044;-60
2024/02/01 11:46:36;;;;;;;46.97;43.57;;;;;;;;;;4215823;28;20511;-61
2024/02/01 11:48:42;;;;;;;43.85;41.03;;;;;;;;;;4215865;28;20380;-60
2024/02/01 11:50:44;;;;;;;44.10;41.42;;;;;;;;;;4215778;28;20119;-64
2024/02/01 11:52:49;;;;;;;44.95;41.90;;;;;;;;;;4215899;28;20040;-64
2024/02/01 11:54:52;;;;;;;44.10;41.13;;;;;;;;;;4215795;28;20294;-64
2024/02/01 11:56:54;;;;;;;44.50;41.53;;;;;;;;;;4214061;28;20074;-64
2024/02/01 11:58:56;;;;;;;;;;;;;;;;;;4215863;28;20036;-64
2024/02/01 12:00:58;;;;;;;42.38;39.83;;;;;;;;;;4215162;28;19920;-60
2024/02/01 12:03:13;;;;;;;44.70;41.85;;;;;;;;;;4215492;28;20036;-61
2024/02/01 12:05:24;;;;;;;44.60;41.53;;;;;;;;;;4213977;28;20032;-62
2024/02/01 12:07:25;;;;;;;43.72;40.92;;;;;;;;;;4213147;28;20032;-61
2024/02/01 12:09:27;;;;;;;43.90;40.85;;;;;;;;;;4210389;28;20504;-61
2024/02/01 12:11:34;;;;;;;43.30;40.50;;;;;;;;;;4213203;28;20043;-60
2024/02/01 12:13:36;;;;;;;43.38;40.53;;;;;;;;;;4212647;28;20555;-61
2024/02/01 12:15:40;;;;;;;44.50;41.35;;;;;;;;;;4214473;28;20105;-62
2024/02/01 12:17:42;;;;;;;46.00;43.00;;;;;;;;;;4213279;28;20448;-60
2024/02/01 12:19:51;;;;;;;38.78;35.95;;;;;;;;;;4214594;28;20044;-61
2024/02/01 12:21:56;;;;;;;42.17;39.60;;;;;;;;;;4211929;28;20040;-61
2024/02/01 12:23:59;;;;;;;44.20;41.50;;;;;;;;;;4209692;28;20040;-61
2024/02/01 12:26:03;;;;;;;44.65;41.58;;;;;;;;;;4212237;28;20046;-61
2024/02/01 12:28:09;;;;;;;40.72;38.13;;;;;;;;;;4214627;28;20398;-61
2024/02/01 12:30:14;;;;;;;40.63;38.08;;;;;;;;;;4206824;28;20124;-62
2024/02/01 12:32:15;;;;;;;40.33;37.83;;;;;;;;;;4208235;28;20040;-61
2024/02/01 12:34:17;;;;;;;39.93;37.43;;;;;;;;;;4208133;28;20055;-61
2024/02/01 12:36:19;;;;;;;41.35;38.58;;;;;;;;;;4207869;28;20047;-60
2024/02/01 12:38:21;;;;;;;41.95;39.33;;;;;;;;;;4203873;28;20036;-60
2024/02/01 12:40:23;;;;;;;36.60;34.40;;;;;;;;;;4215070;28;20313;-60
2024/02/01 12:42:26;;;;;;;40.47;38.25;;;;;;;;;;4215549;28;20283;-61
2024/02/01 12:44:27;;;;;;;37.35;35.22;;;;;;;;;;4215060;28;20036;-57
2024/02/01 12:46:29;;;;;;;40.47;37.72;;;;;;;;;;4213948;28;20097;-56